This is the latest recevied weather packets stored in our database for station/object W5ITZ. If no packets are shown the sender has not sent any weather packets the latest 10 day(s).
| Time | Temp. | Humidity | Pressure | Rain* | Wind** | Luminosity | Snow |
|---|---|---|---|---|---|---|---|
| 1788027373 | 34.44° C | 54% | 1017.3 hPa | 0 mm | - | 258 W/m² | - |
| 1788027067 | 35° C | 52% | 1017 hPa | 0 mm | - | 1018 W/m² | - |
| 1788026761 | 35° C | 52% | 1017.1 hPa | 0 mm | - | 1058 W/m² | - |
| 1788026458 | 34.44° C | 55% | 1017.4 hPa | 0 mm | - | 1084 W/m² | - |
| 1788026157 | 33.89° C | 55% | 1017.2 hPa | 0 mm | - | 1116 W/m² | - |
| 1788025856 | 33.89° C | 58% | 1017.3 hPa | 0 mm | - | 241 W/m² | - |
| 1788025551 | 34.44° C | 54% | 1017.5 hPa | 0 mm | - | 298 W/m² | - |
| 1788025245 | 33.89° C | 56% | 1017.5 hPa | 0 mm | - | 1105 W/m² | - |
| 1788024940 | 33.33° C | 60% | 1017.3 hPa | 0 mm | - | 444 W/m² | - |
| 1788024636 | 33.33° C | 60% | 1017.3 hPa | 0 mm | - | 263 W/m² | - |
| 1788024331 | 33.33° C | 58% | 1017.6 hPa | 0 mm | - | 240 W/m² | - |
| 1788024027 | 33.33° C | 58% | 1017.8 hPa | 0 mm | - | 439 W/m² | - |
| 1788023726 | 33.89° C | 57% | 1017.8 hPa | 0 mm | - | 254 W/m² | - |
| 1788023422 | 34.44° C | 55% | 1017.8 hPa | 0 mm | - | 203 W/m² | - |
| 1788023122 | 33.89° C | 56% | 1017.9 hPa | 0 mm | - | 1029 W/m² | - |
| 1788022822 | 33.89° C | 55% | 1017.9 hPa | 0 mm | - | 1002 W/m² | - |
| 1788022519 | 33.89° C | 54% | 1018.1 hPa | 0 mm | - | 375 W/m² | - |
| 1788022214 | 33.89° C | 56% | 1017.9 hPa | 0 mm | - | 626 W/m² | - |
| 1788021912 | 33.89° C | 57% | 1018.2 hPa | 0 mm | - | 932 W/m² | - |
| 1788021608 | 32.78° C | 58% | 1017.9 hPa | 0 mm | - | 957 W/m² | - |
| 1788021305 | 33.33° C | 57% | 1018.1 hPa | 0 mm | - | 211 W/m² | - |
| 1788021000 | 33.33° C | 60% | 1017.9 hPa | 0 mm | - | 656 W/m² | - |
| 1788020696 | 33.33° C | 59% | 1018.1 hPa | 0 mm | - | 867 W/m² | - |
| 1788020396 | 33.33° C | 55% | 1018 hPa | 0 mm | - | 869 W/m² | - |
| 1788020093 | 33.33° C | 60% | 1018 hPa | 0 mm | - | 879 W/m² | - |
* Rain latest hour (hover to see other rain measurements)
** Current wind speed in m/s (hover to see current wind gust speed)